Time;durP1;ratioP1;P1;durP2;ratioP2;P2;SDS_P1;SDS_P2;PMS_P1;PMS_P2;Temp;Humidity;BMP_temperature;BMP_pressure;BME280_temperature;BME280_humidity;BME280_pressure;Samples;Min_cycle;Max_cycle;Signal;HPM_P1;HPM_P2
2020/12/05 00:00:47;;;;;;;6.05;3.90;;;;;;;5.78;45.79;98784.19;5029468;28;20033;-66
2020/12/05 00:03:14;;;;;;;5.45;3.55;;;;;;;5.78;45.80;98791.47;5030711;28;20385;-66
2020/12/05 00:05:42;;;;;;;5.43;3.30;;;;;;;5.79;46.03;98790.47;5033951;28;20496;-66
2020/12/05 00:08:09;;;;;;;5.38;3.40;;;;;;;5.78;46.03;98783.34;5027649;28;20127;-66
2020/12/05 00:10:37;;;;;;;7.45;4.53;;;;;;;5.77;45.79;98789.75;5032622;28;20054;-66
2020/12/05 00:13:05;;;;;;;6.35;3.72;;;;;;;5.78;46.09;98792.31;5034287;28;20037;-66
2020/12/05 00:15:32;;;;;;;6.57;4.15;;;;;;;5.78;46.11;98791.47;5034726;28;20065;-66
2020/12/05 00:18:00;;;;;;;5.88;4.10;;;;;;;5.79;46.44;98787.75;5033594;28;20045;-66
2020/12/05 00:20:27;;;;;;;6.97;3.85;;;;;;;5.79;46.11;98787.75;5030192;28;20358;-66
2020/12/05 00:22:55;;;;;;;6.30;3.67;;;;;;;5.79;46.31;98790.47;5032816;28;20045;-65
2020/12/05 00:25:22;;;;;;;5.07;3.85;;;;;;;5.80;46.32;98795.75;5034257;28;20052;-66
2020/12/05 00:27:51;;;;;;;6.03;3.85;;;;;;;5.80;46.40;98797.59;5026126;28;20057;-65
2020/12/05 00:30:19;;;;;;;5.32;3.80;;;;;;;5.82;46.37;98806.47;5034182;28;20037;-66
2020/12/05 00:32:46;;;;;;;6.25;3.70;;;;;;;5.81;46.30;98800.19;5032332;28;20095;-66
2020/12/05 00:35:14;;;;;;;4.93;3.65;;;;;;;5.83;46.23;98808.16;5035108;28;20408;-66
2020/12/05 00:37:41;;;;;;;5.15;3.60;;;;;;;5.82;46.28;98799.16;5035153;28;20055;-66
2020/12/05 00:40:08;;;;;;;5.72;3.35;;;;;;;5.82;46.16;98801.88;5034515;28;20384;-66
2020/12/05 00:42:36;;;;;;;6.47;3.78;;;;;;;5.83;46.36;98800.88;5035486;28;20079;-66
2020/12/05 00:45:03;;;;;;;5.50;3.15;;;;;;;5.83;46.09;98803.59;5034994;28;20042;-66
2020/12/05 00:47:31;;;;;;;4.80;3.13;;;;;;;5.83;46.06;98795.47;5038417;28;20037;-65
2020/12/05 00:49:59;;;;;;;5.65;3.45;;;;;;;5.84;46.15;98790.88;5017441;28;20716;-66
2020/12/05 00:52:27;;;;;;;5.53;3.40;;;;;;;5.83;46.04;98786.47;5042038;28;20037;-66
2020/12/05 00:54:54;;;;;;;5.20;3.45;;;;;;;5.83;46.42;98781.88;5016449;28;20044;-66
2020/12/05 00:57:22;;;;;;;6.65;3.53;;;;;;;5.83;46.45;98787.31;5034024;28;20053;-66
2020/12/05 00:59:50;;;;;;;5.30;3.38;;;;;;;5.84;46.58;98786.28;5033411;28;20152;-66
2020/12/05 01:02:17;;;;;;;5.13;3.28;;;;;;;5.85;46.28;98787.13;5034563;28;20120;-66
2020/12/05 01:04:47;;;;;;;5.75;3.50;;;;;;;5.85;46.16;98779.00;5033951;28;20056;-66
2020/12/05 01:07:14;;;;;;;5.70;3.70;;;;;;;5.84;46.41;98790.88;5033910;28;20045;-66
2020/12/05 01:09:41;;;;;;;5.50;3.72;;;;;;;5.84;46.52;98805.28;5031442;28;20046;-65
2020/12/05 01:12:08;;;;;;;6.10;3.58;;;;;;;5.85;46.46;98808.84;5032132;28;20049;-66
2020/12/05 01:14:36;;;;;;;5.30;3.42;;;;;;;5.85;46.41;98812.41;5033818;28;20346;-66
2020/12/05 01:17:04;;;;;;;5.47;3.53;;;;;;;5.85;46.37;98808.84;5034088;28;20045;-66
2020/12/05 01:19:31;;;;;;;5.22;3.45;;;;;;;5.84;46.26;98813.41;5032760;28;20041;-66
2020/12/05 01:22:00;;;;;;;6.40;3.63;;;;;;;5.86;46.17;98821.41;5033909;28;20492;-66
2020/12/05 01:24:28;;;;;;;5.03;3.42;;;;;;;5.86;46.51;98824.13;5034280;28;20053;-65
2020/12/05 01:26:56;;;;;;;6.32;3.78;;;;;;;5.84;46.41;98820.72;5034013;28;20091;-66
2020/12/05 01:29:23;;;;;;;6.03;3.65;;;;;;;5.84;46.21;98820.72;5033792;28;20044;-66
2020/12/05 01:31:50;;;;;;;5.68;3.88;;;;;;;5.84;46.23;98828.88;5034011;28;20049;-66
2020/12/05 01:34:18;;;;;;;6.07;3.75;;;;;;;5.83;46.22;98829.88;5034258;28;20053;-66
2020/12/05 01:36:45;;;;;;;5.43;3.30;;;;;;;5.82;46.38;98836.31;5033963;28;20121;-66
2020/12/05 01:39:13;;;;;;;5.53;3.45;;;;;;;5.82;46.30;98839.00;5033507;28;20500;-66
2020/12/05 01:41:40;;;;;;;6.78;3.72;;;;;;;5.81;46.60;98846.28;5033714;28;20087;-66
2020/12/05 01:44:07;;;;;;;5.82;3.97;;;;;;;5.82;46.59;98852.59;5033966;28;20440;-66
2020/12/05 01:46:39;;;;;;;6.13;3.85;;;;;;;5.83;46.72;98849.72;5033932;28;20048;-66
2020/12/05 01:49:07;;;;;;;6.05;3.80;;;;;;;5.82;46.71;98848.00;5039630;28;20385;-66
2020/12/05 01:51:35;;;;;;;6.85;3.90;;;;;;;5.83;46.90;98849.72;5033728;28;20400;-66
2020/12/05 01:54:03;;;;;;;6.13;4.05;;;;;;;5.82;46.59;98842.59;5033581;28;20436;-66
2020/12/05 01:56:32;;;;;;;5.82;3.97;;;;;;;5.83;46.78;98844.28;5015900;28;20155;-66
2020/12/05 01:59:01;;;;;;;6.43;4.20;;;;;;;5.82;46.95;98845.28;5032988;28;20114;-66
2020/12/05 02:01:29;;;;;;;6.70;4.30;;;;;;;5.82;46.67;98839.88;5033618;28;20048;-66
2020/12/05 02:03:58;;;;;;;7.50;4.45;;;;;;;5.84;46.97;98845.16;5033434;28;20492;-66
2020/12/05 02:06:39;;;;;;;6.30;4.35;;;;;;;5.87;47.17;98852.97;5032548;28;20132;-66
2020/12/05 02:09:14;;;;;;;5.65;3.85;;;;;;;5.85;47.19;98853.13;5032346;28;20558;-65
2020/12/05 02:11:50;;;;;;;6.10;4.25;;;;;;;5.86;47.20;98854.81;5033220;28;20116;-66
2020/12/05 02:14:20;;;;;;;6.30;4.40;;;;;;;5.86;46.88;98852.13;5033249;28;20060;-65
2020/12/05 02:16:51;;;;;;;7.68;4.53;;;;;;;5.86;46.96;98848.53;5032615;28;20120;-65
2020/12/05 02:19:22;;;;;;;6.05;3.75;;;;;;;5.87;46.86;98852.97;5032547;28;20469;-65
2020/12/05 02:21:54;;;;;;;5.55;3.80;;;;;;;5.87;47.01;98851.09;5033060;28;20385;-65
2020/12/05 02:24:23;;;;;;;6.05;4.00;;;;;;;5.85;47.11;98857.69;5032871;28;20060;-65
2020/12/05 02:26:51;;;;;;;6.40;4.15;;;;;;;5.86;47.02;98862.09;5032403;28;20049;-65
2020/12/05 02:29:19;;;;;;;8.57;5.28;;;;;;;5.87;47.13;98864.69;5032578;28;20038;-65
2020/12/05 02:31:46;;;;;;;7.75;4.22;;;;;;;5.87;46.92;98866.53;5015792;28;20041;-66
2020/12/05 02:34:14;;;;;;;7.28;4.80;;;;;;;5.88;47.25;98869.09;5033079;28;20045;-65
2020/12/05 02:36:42;;;;;;;9.07;4.78;;;;;;;5.88;47.16;98874.53;5032826;28;20041;-65
2020/12/05 02:39:11;;;;;;;7.32;5.38;;;;;;;5.89;47.40;98876.25;5032207;28;20065;-64
2020/12/05 02:41:41;;;;;;;8.48;5.10;;;;;;;5.89;47.26;98880.81;5032568;28;20077;-65
2020/12/05 02:44:08;;;;;;;7.15;4.47;;;;;;;5.87;47.23;98886.38;5033077;28;20072;-65
2020/12/05 02:46:36;;;;;;;5.47;4.00;;;;;;;5.89;47.11;98891.66;5032625;28;20619;-65
2020/12/05 02:49:03;;;;;;;5.57;3.78;;;;;;;5.89;47.01;98895.25;5041465;28;20060;-65
2020/12/05 02:51:30;;;;;;;7.32;4.50;;;;;;;5.88;47.12;98889.94;5032632;28;20053;-65
2020/12/05 02:53:58;;;;;;;6.38;4.20;;;;;;;5.89;47.40;98894.38;5032257;28;20040;-65
2020/12/05 02:56:25;;;;;;;5.80;3.70;;;;;;;5.89;47.07;98886.25;5014935;28;20396;-65
2020/12/05 02:58:56;;;;;;;6.60;4.47;;;;;;;5.90;47.33;98883.38;5031894;28;20049;-65
2020/12/05 03:01:23;;;;;;;7.10;4.75;;;;;;;5.89;47.18;98878.97;5032549;28;20079;-65
2020/12/05 03:03:50;;;;;;;6.97;4.57;;;;;;;5.89;47.06;98886.25;5042099;28;20049;-65
2020/12/05 03:06:18;;;;;;;8.88;5.32;;;;;;;5.89;47.40;98878.09;5019028;28;20115;-65
2020/12/05 03:08:45;;;;;;;7.88;5.18;;;;;;;5.88;47.14;98879.09;5029965;28;20128;-65
2020/12/05 03:11:13;;;;;;;7.97;4.93;;;;;;;5.88;47.20;98877.25;5031930;28;20053;-64
2020/12/05 03:13:40;;;;;;;7.47;5.18;;;;;;;5.88;47.17;98870.97;5032524;28;20041;-65
2020/12/05 03:16:09;;;;;;;7.05;4.75;;;;;;;5.87;47.23;98864.69;5032074;28;20049;-65
2020/12/05 03:18:37;;;;;;;8.20;4.68;;;;;;;5.85;47.32;98871.25;5031983;28;20431;-65
2020/12/05 03:21:24;;;;;;;7.80;5.25;;;;;;;5.84;47.19;98873.09;5031129;28;20136;-65
2020/12/05 03:23:52;;;;;;;6.65;4.40;;;;;;;5.83;47.42;98879.56;5028135;28;20046;-64
2020/12/05 03:26:19;;;;;;;6.72;4.70;;;;;;;5.85;47.40;98884.81;5032129;28;20571;-65
2020/12/05 03:28:46;;;;;;;6.57;4.53;;;;;;;5.84;47.33;98883.13;5030217;28;20489;-65
2020/12/05 03:31:25;;;;;;;8.18;4.80;;;;;;;5.84;47.51;98883.13;5014258;28;20080;-65
2020/12/05 03:33:52;;;;;;;7.75;4.75;;;;;;;5.81;47.56;98881.56;5032003;28;20037;-65
2020/12/05 03:36:20;;;;;;;8.32;5.18;;;;;;;5.81;47.61;98887.00;5032212;28;20050;-66
2020/12/05 03:38:47;;;;;;;8.13;5.40;;;;;;;5.82;47.34;98896.84;5030386;28;20068;-66
2020/12/05 03:41:15;;;;;;;6.88;4.70;;;;;;;5.81;47.57;98887.00;5031865;28;20120;-66
2020/12/05 03:43:42;;;;;;;6.65;4.65;;;;;;;5.81;47.60;98895.13;5032002;28;20151;-65
2020/12/05 03:46:09;;;;;;;7.55;4.95;;;;;;;5.82;47.46;98896.84;5032234;28;20125;-66
2020/12/05 03:48:38;;;;;;;8.75;4.82;;;;;;;5.85;47.63;98903.81;5034296;28;20459;-65
2020/12/05 03:51:05;;;;;;;9.13;5.35;;;;;;;5.84;47.70;98896.69;5031758;28;20392;-66
2020/12/05 03:53:32;;;;;;;8.18;5.38;;;;;;;5.85;47.67;98892.97;5031959;28;20049;-66
2020/12/05 03:55:59;;;;;;;8.68;5.40;;;;;;;5.86;47.52;98903.66;5031639;28;20653;-66
2020/12/05 03:58:27;;;;;;;9.23;5.85;;;;;;;5.85;47.55;98899.25;5031986;28;20046;-65
2020/12/05 04:00:54;;;;;;;9.23;6.32;;;;;;;5.87;47.64;98915.38;5013514;28;20044;-66
2020/12/05 04:03:22;;;;;;;8.30;5.47;;;;;;;5.87;47.60;98924.38;5031871;28;20048;-65
2020/12/05 04:05:50;;;;;;;9.45;6.20;;;;;;;5.87;47.52;98924.38;5032070;28;20523;-66
2020/12/05 04:08:17;;;;;;;9.43;6.10;;;;;;;5.86;47.57;98928.09;5031804;28;20037;-66
2020/12/05 04:10:45;;;;;;;9.55;5.85;;;;;;;5.87;47.65;98920.81;5029895;28;20037;-66
2020/12/05 04:13:32;;;;;;;9.00;5.78;;;;;;;5.85;47.46;98931.81;5009712;28;20046;-66
2020/12/05 04:16:20;;;;;;;9.23;6.00;;;;;;;5.85;47.50;98929.09;5031604;28;20045;-66
2020/12/05 04:19:07;;;;;;;8.93;5.90;;;;;;;5.85;47.53;98933.66;5031128;28;20076;-66
2020/12/05 04:21:55;;;;;;;9.25;6.10;;;;;;;5.86;47.68;98935.38;5031230;28;20087;-66
2020/12/05 04:24:42;;;;;;;8.82;5.43;;;;;;;5.86;47.76;98935.38;5031653;28;20053;-66
2020/12/05 04:27:29;;;;;;;11.55;6.28;;;;;;;5.85;47.63;98939.94;5031833;28;20046;-66
2020/12/05 04:29:57;;;;;;;8.35;5.32;;;;;;;5.87;47.78;98942.50;5031298;28;20037;-66
2020/12/05 04:32:24;;;;;;;10.05;5.78;;;;;;;5.86;47.73;98944.38;5029913;28;20045;-66
2020/12/05 04:34:51;;;;;;;11.95;6.93;;;;;;;5.88;47.70;98946.94;5031778;28;20049;-66
2020/12/05 04:37:19;;;;;;;10.48;6.40;;;;;;;5.88;47.64;98944.22;5031777;28;20056;-65
2020/12/05 04:39:46;;;;;;;10.25;6.03;;;;;;;5.88;47.73;98946.94;5030964;28;20120;-66
2020/12/05 04:42:15;;;;;;;10.10;6.72;;;;;;;5.88;47.80;98960.50;5047329;28;20607;-66
2020/12/05 04:44:42;;;;;;;10.25;5.75;;;;;;;5.89;47.89;98962.22;5023686;28;20492;-66
2020/12/05 04:47:10;;;;;;;11.35;6.22;;;;;;;5.89;47.85;98959.50;5013833;28;20139;-65
2020/12/05 04:49:38;;;;;;;11.15;6.70;;;;;;;5.89;47.87;98956.78;5031039;28;20500;-66
2020/12/05 04:52:22;;;;;;;12.40;7.20;;;;;;;5.93;48.21;98961.75;5034818;28;20404;-65
2020/12/05 04:54:53;;;;;;;11.43;7.22;;;;;;;5.92;48.08;98962.75;5035174;28;20045;-66
2020/12/05 04:57:23;;;;;;;10.90;6.55;;;;;;;5.92;48.03;98962.75;5017373;28;20050;-66
2020/12/05 04:59:51;;;;;;;11.18;6.43;;;;;;;5.94;47.79;98970.75;5034543;28;20045;-66
2020/12/05 05:02:25;;;;;;;11.35;7.13;;;;;;;5.95;47.87;98967.03;5035300;28;20048;-66
2020/12/05 05:04:53;;;;;;;11.95;6.95;;;;;;;5.95;48.03;98965.19;5035062;28;20052;-66
2020/12/05 05:07:21;;;;;;;11.88;6.97;;;;;;;5.96;47.86;98955.19;5035107;28;20050;-66
2020/12/05 05:09:52;;;;;;;13.90;7.53;;;;;;;5.98;47.95;98955.91;5034083;28;20045;-66
2020/12/05 05:12:27;;;;;;;10.10;6.00;;;;;;;6.00;48.22;98959.34;5034803;28;20057;-66
2020/12/05 05:14:55;;;;;;;10.88;7.10;;;;;;;5.98;48.13;98964.03;5034816;28;20041;-66
2020/12/05 05:17:22;;;;;;;12.27;7.28;;;;;;;5.98;47.93;98967.63;5050164;28;20493;-66
2020/12/05 05:19:49;;;;;;;13.82;8.00;;;;;;;5.98;47.89;98974.91;5029983;28;20506;-66
2020/12/05 05:22:21;;;;;;;12.27;7.35;;;;;;;6.02;47.76;98976.28;5050157;28;20140;-66
2020/12/05 05:25:02;;;;;;;13.27;7.47;;;;;;;6.03;48.14;98988.88;5034687;28;20059;-66
2020/12/05 05:27:31;;;;;;;11.35;6.90;;;;;;;6.01;48.05;98990.03;5034283;28;20838;-66
2020/12/05 05:30:07;;;;;;;13.30;7.45;;;;;;;6.04;48.13;98987.88;5033871;28;20091;-66
2020/12/05 05:32:44;;;;;;;10.63;6.55;;;;;;;6.02;48.00;98980.88;5035207;28;20050;-66
2020/12/05 05:35:13;;;;;;;12.55;7.63;;;;;;;6.02;48.12;98979.00;5034442;28;20049;-66
2020/12/05 05:37:42;;;;;;;11.63;7.03;;;;;;;6.03;47.91;98971.72;5034443;28;20049;-66
2020/12/05 05:40:12;;;;;;;11.55;7.38;;;;;;;6.02;47.79;98970.88;5033478;28;20445;-66
2020/12/05 05:42:42;;;;;;;11.65;7.32;;;;;;;6.03;47.89;98978.00;5034530;28;20485;-66
2020/12/05 05:45:17;;;;;;;12.85;7.35;;;;;;;6.05;47.95;98992.28;5033259;28;20377;-66
2020/12/05 05:47:45;;;;;;;12.63;8.07;;;;;;;6.00;47.79;98991.91;5030846;28;20061;-66
2020/12/05 05:50:24;;;;;;;12.60;7.53;;;;;;;6.05;48.12;99000.44;5033409;28;20037;-66
2020/12/05 05:52:57;;;;;;;11.55;7.07;;;;;;;6.03;48.08;99010.56;5034300;28;20057;-66
2020/12/05 05:55:39;;;;;;;12.60;7.43;;;;;;;6.03;48.03;99020.56;5034134;28;20449;-66
2020/12/05 05:58:08;;;;;;;11.57;7.20;;;;;;;6.02;47.97;99019.72;5034056;28;20045;-66
2020/12/05 06:00:38;;;;;;;11.85;7.05;;;;;;;6.02;47.93;99022.44;5033183;28;20095;-65
2020/12/05 06:03:16;;;;;;;13.15;7.18;;;;;;;6.05;48.25;99034.88;5033134;28;20050;-66
2020/12/05 06:05:47;;;;;;;12.00;7.90;;;;;;;6.04;48.17;99035.88;5033526;28;20061;-66
2020/12/05 06:08:18;;;;;;;12.02;6.82;;;;;;;6.03;47.79;99043.16;5032904;28;20048;-66
2020/12/05 06:10:53;;;;;;;12.00;7.40;;;;;;;6.04;47.98;99050.28;5033180;28;20052;-66
2020/12/05 06:13:25;;;;;;;10.88;6.88;;;;;;;6.04;48.03;99055.72;5033842;28;20069;-66
2020/12/05 06:15:53;;;;;;;12.80;7.15;;;;;;;6.01;48.00;99055.19;5041577;28;20397;-66
2020/12/05 06:18:21;;;;;;;11.90;7.63;;;;;;;6.02;47.90;99065.88;5014124;28;20056;-66
2020/12/05 06:20:49;;;;;;;10.63;6.75;;;;;;;6.02;47.92;99065.88;5019356;28;20488;-66
2020/12/05 06:23:27;;;;;;;11.80;6.97;;;;;;;6.04;47.99;99072.00;5033679;28;20045;-66
2020/12/05 06:25:56;;;;;;;12.50;7.13;;;;;;;6.02;47.95;99084.00;5033174;28;20530;-66
2020/12/05 06:28:24;;;;;;;13.05;7.97;;;;;;;6.04;47.97;99087.44;5015646;28;20072;-65
2020/12/05 06:30:52;;;;;;;13.77;8.02;;;;;;;6.00;47.63;99092.31;5030273;28;20095;-66
2020/12/05 06:33:40;;;;;;;13.68;8.00;;;;;;;6.02;48.04;99109.28;5032627;28;20079;-66
2020/12/05 06:36:39;;;;;;;11.73;7.43;;;;;;;5.99;48.13;99109.59;5033352;28;20042;-66
2020/12/05 06:39:11;;;;;;;13.05;7.85;;;;;;;5.98;48.11;99110.59;5048196;28;20374;-66
2020/12/05 06:41:39;;;;;;;12.82;7.13;;;;;;;5.96;48.13;99112.59;5033449;28;20049;-66
2020/12/05 06:44:13;;;;;;;12.82;7.25;;;;;;;5.99;47.97;99117.75;5048580;28;20052;-66
2020/12/05 06:46:51;;;;;;;12.23;7.32;;;;;;;5.98;48.13;99127.75;5033333;28;20137;-66
2020/12/05 06:49:49;;;;;;;13.82;7.93;;;;;;;5.95;48.03;99130.75;5035377;28;20053;-66
2020/12/05 06:52:46;;;;;;;12.63;7.13;;;;;;;5.90;48.27;99143.03;5042936;28;20049;-66
2020/12/05 06:55:32;;;;;;;12.45;7.80;;;;;;;5.93;48.27;99146.31;5032914;28;20053;-66
2020/12/05 06:58:05;;;;;;;12.32;7.15;;;;;;;5.93;48.10;99156.28;5032973;28;20048;-66
2020/12/05 07:00:36;;;;;;;12.02;7.13;;;;;;;5.91;48.27;99151.03;5032047;28;20476;-66
2020/12/05 07:03:05;;;;;;;12.27;6.88;;;;;;;5.92;48.19;99163.59;5032977;28;20472;-66
2020/12/05 07:05:35;;;;;;;12.70;7.13;;;;;;;5.91;48.09;99161.91;5032946;28;20128;-66
2020/12/05 07:08:20;;;;;;;13.63;7.70;;;;;;;5.91;48.25;99167.31;5032877;28;20049;-66
2020/12/05 07:10:52;;;;;;;13.32;8.18;;;;;;;5.91;48.00;99166.47;5031984;28;20564;-66
2020/12/05 07:13:21;;;;;;;14.75;7.80;;;;;;;5.91;48.05;99169.19;5013014;28;20049;-66
2020/12/05 07:15:49;;;;;;;11.57;7.32;;;;;;;5.90;48.04;99171.03;5016946;28;20571;-66
2020/12/05 07:18:37;;;;;;;12.65;7.45;;;;;;;5.90;48.34;99192.75;5032455;28;20049;-66
2020/12/05 07:21:05;;;;;;;11.10;6.97;;;;;;;5.88;48.32;99189.31;5032457;28;20037;-66
2020/12/05 07:23:32;;;;;;;12.88;7.55;;;;;;;5.89;48.27;99195.59;5032691;28;20128;-66
2020/12/05 07:26:01;;;;;;;12.43;7.93;;;;;;;5.89;48.24;99196.47;5031967;28;20496;-66
2020/12/05 07:28:28;;;;;;;11.63;7.28;;;;;;;5.88;48.10;99193.88;5032341;28;20518;-66
2020/12/05 07:30:56;;;;;;;13.35;8.50;;;;;;;5.90;48.08;99208.16;5031928;28;20443;-66
2020/12/05 07:33:24;;;;;;;11.98;7.00;;;;;;;5.88;48.08;99208.31;5032399;28;20044;-66
2020/12/05 07:35:59;;;;;;;11.90;7.30;;;;;;;5.90;48.52;99211.75;5024357;28;20148;-66
2020/12/05 07:38:28;;;;;;;12.75;7.25;;;;;;;5.88;48.35;99218.31;5027750;28;20045;-66
2020/12/05 07:40:55;;;;;;;13.10;7.00;;;;;;;5.87;48.33;99219.31;5013834;28;20119;-66
2020/12/05 07:43:24;;;;;;;11.88;6.70;;;;;;;5.88;48.39;99224.59;5022154;28;20042;-66
2020/12/05 07:46:02;;;;;;;10.60;6.60;;;;;;;5.89;48.33;99228.16;5025683;28;20122;-66
2020/12/05 07:48:32;;;;;;;13.48;6.45;;;;;;;5.88;48.46;99238.16;5034230;28;20045;-66
2020/12/05 07:51:00;;;;;;;12.05;6.88;;;;;;;5.90;48.34;99246.16;5011681;28;20051;-66
2020/12/05 07:53:30;;;;;;;12.82;6.57;;;;;;;5.90;48.20;99251.59;5028088;28;20045;-66
2020/12/05 07:55:59;;;;;;;10.93;6.10;;;;;;;5.89;48.58;99249.88;5032046;28;20107;-66
2020/12/05 07:58:26;;;;;;;10.60;6.47;;;;;;;5.90;48.42;99257.03;5031803;28;20120;-65
2020/12/05 08:00:55;;;;;;;10.93;6.43;;;;;;;5.90;48.60;99263.31;5031020;28;20061;-66
2020/12/05 08:04:02;;;;;;;12.25;6.97;;;;;;;5.88;48.84;99269.88;5031714;28;20099;-66
2020/12/05 08:06:46;;;;;;;12.85;7.05;;;;;;;5.92;48.82;99276.75;5012372;28;20081;-66
2020/12/05 08:09:22;;;;;;;10.73;6.72;;;;;;;5.92;48.94;99264.00;5001270;28;20058;-66
2020/12/05 08:11:53;;;;;;;12.35;7.50;;;;;;;5.92;48.69;99279.44;5021804;28;20756;-66
2020/12/05 08:14:21;;;;;;;12.57;7.72;;;;;;;5.92;48.46;99291.13;5028179;28;20074;-66
2020/12/05 08:16:51;;;;;;;13.52;8.07;;;;;;;5.93;48.57;99292.00;5029713;28;20125;-66
2020/12/05 08:19:19;;;;;;;12.82;7.72;;;;;;;5.95;48.54;99298.16;5043913;28;20095;-66
2020/12/05 08:21:46;;;;;;;12.05;7.47;;;;;;;5.93;48.62;99295.56;5026975;28;20121;-66
2020/12/05 08:24:19;;;;;;;12.30;7.18;;;;;;;5.92;48.50;99293.03;5028568;28;20048;-66
2020/12/05 08:26:50;;;;;;;13.38;7.93;;;;;;;5.95;48.78;99303.56;5051065;28;20049;-66
2020/12/05 08:29:18;;;;;;;12.95;7.80;;;;;;;5.94;48.62;99308.16;5034416;28;20273;-66
2020/12/05 08:31:45;;;;;;;12.80;8.15;;;;;;;5.93;48.83;99313.72;5034617;28;20037;-66
2020/12/05 08:34:13;;;;;;;12.77;7.90;;;;;;;5.95;48.68;99319.88;5020123;28;20500;-66
2020/12/05 08:36:44;;;;;;;12.18;7.25;;;;;;;5.98;48.83;99322.31;5030327;28;20052;-66
2020/12/05 08:39:13;;;;;;;11.55;6.68;;;;;;;5.96;48.62;99330.59;5040705;28;20104;-66
2020/12/05 08:41:42;;;;;;;13.27;7.90;;;;;;;5.97;48.75;99328.72;5033796;28;20041;-67
2020/12/05 08:44:14;;;;;;;13.07;7.40;;;;;;;6.00;48.90;99333.88;5031862;28;20048;-66
2020/12/05 08:46:42;;;;;;;13.70;7.47;;;;;;;6.00;48.76;99330.31;5033457;28;20041;-66
2020/12/05 08:49:16;;;;;;;14.60;7.53;;;;;;;6.03;48.96;99327.31;5018146;28;20419;-66
2020/12/05 08:51:47;;;;;;;13.70;7.90;;;;;;;6.04;49.05;99321.75;5050697;28;20037;-66
2020/12/05 08:54:15;;;;;;;12.48;7.22;;;;;;;6.04;48.93;99321.75;5041771;28;20049;-66
2020/12/05 08:56:43;;;;;;;11.18;6.07;;;;;;;6.06;48.78;99322.47;5048609;28;20049;-66
2020/12/05 08:59:11;;;;;;;11.55;5.68;;;;;;;6.09;48.75;99329.47;5033288;28;20128;-66
2020/12/05 09:01:41;;;;;;;8.77;5.47;;;;;;;6.10;49.01;99328.44;5033606;28;20063;-66
2020/12/05 09:04:11;;;;;;;11.00;5.47;;;;;;;6.12;48.87;99326.47;5037538;28;20045;-66
2020/12/05 09:06:39;;;;;;;10.52;6.00;;;;;;;6.14;48.75;99330.75;5029720;28;20046;-66
2020/12/05 09:09:08;;;;;;;10.75;6.43;;;;;;;6.18;48.67;99337.59;5021750;28;20408;-66
2020/12/05 09:11:37;;;;;;;10.25;6.10;;;;;;;6.20;48.55;99337.47;5034235;28;20452;-66
2020/12/05 09:14:05;;;;;;;7.78;5.10;;;;;;;6.22;48.46;99339.06;5033426;28;20042;-66
2020/12/05 09:16:33;;;;;;;8.45;4.82;;;;;;;6.25;48.48;99344.19;5033939;28;20048;-66
2020/12/05 09:19:01;;;;;;;7.68;4.55;;;;;;;6.27;48.59;99344.03;5033016;28;20072;-66
2020/12/05 09:21:35;;;;;;;7.65;4.63;;;;;;;6.33;48.26;99363.38;5045595;28;20037;-65
2020/12/05 09:24:05;;;;;;;16.60;7.00;;;;;;;6.32;48.34;99353.50;5034180;28;20049;-66
2020/12/05 09:26:33;;;;;;;15.48;6.88;;;;;;;6.36;48.29;99354.06;5041891;28;20049;-66
2020/12/05 09:29:01;;;;;;;7.88;4.70;;;;;;;6.36;48.44;99362.19;5010247;28;20092;-66
2020/12/05 09:31:30;;;;;;;7.22;4.30;;;;;;;6.40;48.42;99371.81;5033204;28;20046;-70
2020/12/05 09:33:57;;;;;;;6.93;4.25;;;;;;;6.41;48.63;99378.09;5032055;28;20083;-70
2020/12/05 09:36:24;;;;;;;7.32;4.40;;;;;;;6.45;48.73;99382.22;5032358;28;20373;-70
2020/12/05 09:38:52;;;;;;;6.50;3.95;;;;;;;6.48;48.69;99390.09;5028431;28;20129;-70
2020/12/05 09:41:19;;;;;;;6.55;4.32;;;;;;;6.53;48.94;99401.38;5030275;28;20376;-71
2020/12/05 09:43:47;;;;;;;7.95;4.82;;;;;;;6.58;49.04;99391.78;5019820;28;20485;-70
2020/12/05 09:46:15;;;;;;;8.45;5.38;;;;;;;6.63;48.92;99375.09;5031924;28;20041;-66
2020/12/05 09:48:43;;;;;;;7.80;4.80;;;;;;;6.69;48.88;99367.22;5026586;28;20507;-66
2020/12/05 09:51:10;;;;;;;7.53;4.78;;;;;;;6.74;48.63;99361.34;5029047;28;20042;-66
2020/12/05 09:53:37;;;;;;;7.18;4.38;;;;;;;6.79;48.55;99364.50;5033473;28;20052;-66
2020/12/05 09:56:04;;;;;;;7.72;4.55;;;;;;;6.83;48.03;99371.34;5032646;28;20407;-66
2020/12/05 09:58:31;;;;;;;6.05;3.90;;;;;;;6.88;48.14;99371.78;5033743;28;20041;-66
2020/12/05 10:00:59;;;;;;;7.28;3.95;;;;;;;6.92;48.16;99375.03;5031327;28;20041;-66
2020/12/05 10:03:27;;;;;;;6.65;4.18;;;;;;;6.96;48.07;99387.34;5032505;28;20041;-66
2020/12/05 10:05:54;;;;;;;7.55;4.32;;;;;;;6.99;47.82;99395.25;5031050;28;20083;-66
2020/12/05 10:08:21;;;;;;;7.40;4.60;;;;;;;7.01;47.80;99401.38;5029268;28;20042;-66
2020/12/05 10:10:48;;;;;;;6.53;4.07;;;;;;;7.04;47.66;99399.25;5029178;28;20075;-66
2020/12/05 10:13:16;;;;;;;6.93;4.70;;;;;;;7.07;47.53;99390.81;5030138;28;20049;-66
2020/12/05 10:15:43;;;;;;;7.50;4.40;;;;;;;7.09;47.66;99399.66;5032185;28;20071;-66
2020/12/05 10:18:12;;;;;;;7.40;4.22;;;;;;;7.14;47.43;99401.09;5023671;28;20046;-66
2020/12/05 10:20:39;;;;;;;7.32;4.53;;;;;;;7.15;47.41;99402.81;5027213;28;20119;-66
2020/12/05 10:23:06;;;;;;;9.60;5.28;;;;;;;7.17;47.22;99385.34;5031248;28;20052;-66
2020/12/05 10:25:33;;;;;;;17.85;8.32;;;;;;;7.19;47.06;99387.91;5032269;28;20095;-66
2020/12/05 10:28:00;;;;;;;13.48;7.00;;;;;;;7.20;47.04;99385.06;5033364;28;20051;-66
2020/12/05 10:30:28;;;;;;;9.88;4.80;;;;;;;7.22;46.79;99388.50;5032521;28;20053;-66
2020/12/05 10:32:55;;;;;;;8.27;4.88;;;;;;;7.23;47.01;99390.22;5033348;28;20076;-66
2020/12/05 10:35:23;;;;;;;7.43;4.40;;;;;;;7.26;47.00;99389.03;5024005;28;20076;-66
2020/12/05 10:37:51;;;;;;;7.10;4.70;;;;;;;7.26;46.92;99389.03;5029973;28;20091;-66
2020/12/05 10:40:18;;;;;;;6.90;4.38;;;;;;;7.27;46.93;99388.03;5032203;28;20103;-66
2020/12/05 10:42:45;;;;;;;5.60;3.42;;;;;;;7.30;46.83;99409.50;5033141;28;20045;-64
2020/12/05 10:45:13;;;;;;;4.25;2.55;;;;;;;7.33;46.88;99425.53;5026284;28;20065;-66
2020/12/05 10:47:41;;;;;;;4.50;2.50;;;;;;;7.37;46.58;99424.25;5029664;28;20044;-66
2020/12/05 10:50:09;;;;;;;3.88;2.30;;;;;;;7.41;46.60;99425.66;5039639;28;20046;-66
2020/12/05 10:52:37;;;;;;;3.38;1.85;;;;;;;7.44;46.46;99404.47;5032971;28;20065;-67
2020/12/05 10:55:04;;;;;;;3.15;1.70;;;;;;;7.49;46.58;99393.13;5029578;28;20045;-66
2020/12/05 10:57:31;;;;;;;3.60;1.70;;;;;;;7.55;46.33;99395.28;5024707;28;20080;-66
2020/12/05 10:59:59;;;;;;;3.15;1.65;;;;;;;7.61;46.20;99400.09;5030722;28;20143;-65
2020/12/05 11:02:27;;;;;;;2.88;1.50;;;;;;;7.65;45.96;99404.25;5032812;28;20065;-66
2020/12/05 11:04:54;;;;;;;1.70;1.08;;;;;;;7.70;45.63;99411.97;5025121;28;20037;-65
2020/12/05 11:07:22;;;;;;;1.77;1.17;;;;;;;7.74;45.41;99410.63;5030451;28;20160;-65
2020/12/05 11:09:50;;;;;;;1.30;0.88;;;;;;;7.78;45.11;99403.91;5012811;28;20835;-65
2020/12/05 11:12:17;;;;;;;1.63;1.00;;;;;;;7.80;45.05;99394.59;5034044;28;20527;-66
2020/12/05 11:14:44;;;;;;;1.55;0.90;;;;;;;7.82;44.75;99408.88;5030309;28;20425;-66
2020/12/05 11:17:12;;;;;;;1.58;0.80;;;;;;;7.87;44.67;99408.44;5024015;28;20048;-66
2020/12/05 11:19:39;;;;;;;2.33;1.02;;;;;;;7.90;44.33;99413.56;5011561;28;20056;-66
2020/12/05 11:22:06;;;;;;;1.85;0.98;;;;;;;7.96;44.46;99418.44;5025164;28;20042;-65
2020/12/05 11:24:33;;;;;;;1.23;0.95;;;;;;;8.00;44.28;99413.53;5029827;28;20084;-66
2020/12/05 11:27:01;;;;;;;1.70;1.00;;;;;;;8.05;43.95;99423.00;5030597;28;20076;-68
2020/12/05 11:29:29;;;;;;;1.40;0.90;;;;;;;8.08;43.85;99424.53;5031024;28;20083;-67
2020/12/05 11:31:56;;;;;;;1.42;1.00;;;;;;;8.12;43.69;99429.53;5015048;28;20644;-66
2020/12/05 11:34:24;;;;;;;1.73;1.00;;;;;;;8.18;43.53;99434.38;5029320;28;20111;-66
2020/12/05 11:36:51;;;;;;;1.38;0.90;;;;;;;8.22;43.64;99430.34;5017588;28;20099;-67
2020/12/05 11:39:18;;;;;;;1.63;0.93;;;;;;;8.29;43.44;99432.47;5030637;28;20046;-66
2020/12/05 11:41:47;;;;;;;2.13;1.00;;;;;;;8.35;43.16;99418.22;5030592;28;20041;-65
2020/12/05 11:44:15;;;;;;;1.75;1.15;;;;;;;8.39;42.89;99409.59;5029011;28;21609;-66
2020/12/05 11:46:42;;;;;;;2.20;0.90;;;;;;;8.43;42.98;99401.94;5023187;28;20049;-67
2020/12/05 11:49:09;;;;;;;2.05;0.93;;;;;;;8.47;42.67;99401.53;5024836;28;20497;-66
2020/12/05 11:51:38;;;;;;;1.92;0.95;;;;;;;8.53;42.60;99408.22;5025694;28;20041;-66